createdAt,value
2019-03-23T00:02:51.245Z,6.40
2019-03-23T00:06:05.260Z,5.40
2019-03-23T00:09:19.455Z,6.27
2019-03-23T00:12:39.497Z,7.50
2019-03-23T00:15:53.492Z,7.73
2019-03-23T00:19:07.488Z,8.13
2019-03-23T00:22:21.477Z,7.67
2019-03-23T00:25:35.611Z,6.37
2019-03-23T00:28:50.040Z,5.70
2019-03-23T00:32:04.263Z,6.00
2019-03-23T00:35:18.276Z,5.97
2019-03-23T00:38:32.265Z,6.33
2019-03-23T00:41:46.264Z,7.07
2019-03-23T00:45:00.356Z,5.93
2019-03-23T00:48:14.478Z,7.90
2019-03-23T00:51:28.477Z,7.03
2019-03-23T00:54:42.747Z,8.40
2019-03-23T00:57:56.797Z,7.40
2019-03-23T01:01:11.131Z,6.43
2019-03-23T01:04:25.145Z,5.70
2019-03-23T01:07:39.364Z,7.03
2019-03-23T01:10:53.385Z,8.13
2019-03-23T01:14:07.710Z,10.67
2019-03-23T01:17:21.721Z,10.00
2019-03-23T01:20:36.327Z,8.00
2019-03-23T01:23:50.640Z,6.60
2019-03-23T01:27:04.850Z,6.67
2019-03-23T01:30:19.251Z,6.43
2019-03-23T01:33:33.545Z,6.57
2019-03-23T01:36:47.577Z,7.80
2019-03-23T01:40:01.895Z,8.13
2019-03-23T01:43:16.278Z,7.10
2019-03-23T01:46:30.298Z,7.33
2019-03-23T01:49:44.301Z,7.03
2019-03-23T01:52:58.423Z,6.70
2019-03-23T01:56:12.451Z,6.47
2019-03-23T01:59:26.732Z,6.40
2019-03-23T02:02:40.746Z,6.60
2019-03-23T02:05:54.794Z,7.20
2019-03-23T02:09:08.803Z,6.30
2019-03-23T02:12:23.370Z,7.40
2019-03-23T02:15:37.719Z,7.83
2019-03-23T02:18:51.992Z,6.40
2019-03-23T02:22:06.030Z,6.73
2019-03-23T02:25:20.841Z,7.33
2019-03-23T02:28:34.962Z,7.83
2019-03-23T02:31:49.212Z,7.40
2019-03-23T02:35:03.769Z,9.53
2019-03-23T02:38:17.834Z,10.80
2019-03-23T02:41:31.842Z,10.13
2019-03-23T02:44:45.831Z,7.23
2019-03-23T02:48:00.241Z,7.80
2019-03-23T02:51:14.263Z,7.80
2019-03-23T02:54:28.317Z,8.17
2019-03-23T02:57:42.345Z,7.87
2019-03-23T03:00:56.358Z,8.40
2019-03-23T03:04:10.359Z,7.60
2019-03-23T03:07:24.755Z,7.30
2019-03-23T03:10:39.837Z,7.50
2019-03-23T03:13:54.084Z,8.03
2019-03-23T03:17:08.423Z,8.70
2019-03-23T03:20:22.431Z,8.40
2019-03-23T03:23:36.765Z,8.83
2019-03-23T03:26:50.779Z,7.93
2019-03-23T03:30:05.417Z,7.53
2019-03-23T03:33:19.747Z,8.33
2019-03-23T03:36:34.155Z,8.00
2019-03-23T03:39:48.209Z,8.57
2019-03-23T03:43:02.717Z,9.33
2019-03-23T03:46:16.751Z,9.43
2019-03-23T03:49:30.777Z,9.33
2019-03-23T03:52:45.481Z,10.70
2019-03-23T03:55:59.588Z,9.23
2019-03-23T03:59:13.704Z,9.20
2019-03-23T04:02:27.820Z,11.00
2019-03-23T04:05:41.967Z,9.83
2019-03-23T04:08:56.002Z,10.10
2019-03-23T04:12:10.017Z,9.37
2019-03-23T04:15:24.011Z,9.00
2019-03-23T04:18:38.059Z,8.57
2019-03-23T04:21:52.199Z,8.13
2019-03-23T04:25:07.639Z,9.73
2019-03-23T04:28:21.646Z,10.57
2019-03-23T04:31:35.771Z,11.13
2019-03-23T04:34:49.811Z,10.43
2019-03-23T04:38:03.930Z,9.30
2019-03-23T04:41:18.394Z,10.23
2019-03-23T04:44:32.405Z,10.20
2019-03-23T04:47:46.426Z,10.90
2019-03-23T04:51:00.421Z,11.20
2019-03-23T04:54:14.446Z,11.10
2019-03-23T04:57:28.813Z,11.00
2019-03-23T05:00:42.916Z,10.40
2019-03-23T05:03:56.942Z,11.07
2019-03-23T05:07:11.393Z,11.57
2019-03-23T05:10:25.408Z,12.03
2019-03-23T05:13:39.825Z,10.93
2019-03-23T05:16:53.983Z,11.13
2019-03-23T05:20:09.093Z,11.73
2019-03-23T05:23:23.229Z,11.17
2019-03-23T05:26:37.227Z,10.63
2019-03-23T05:29:51.285Z,12.60
2019-03-23T05:33:05.696Z,12.03
2019-03-23T05:36:20.107Z,13.70
2019-03-23T05:39:34.106Z,12.73
2019-03-23T05:42:48.233Z,11.57
2019-03-23T05:46:02.444Z,11.93
2019-03-23T05:49:16.887Z,10.93
2019-03-23T05:52:30.896Z,12.27
2019-03-23T05:55:45.785Z,12.43
2019-03-23T05:59:00.121Z,12.33
2019-03-23T06:02:14.437Z,11.13
2019-03-23T06:05:28.883Z,13.37
2019-03-23T06:08:43.200Z,12.50
2019-03-23T06:11:57.327Z,14.17
2019-03-23T06:15:11.516Z,14.27
2019-03-23T06:18:25.786Z,14.60
2019-03-23T06:21:39.778Z,14.37
2019-03-23T06:24:53.805Z,13.50
2019-03-23T06:28:07.820Z,13.73
2019-03-23T06:31:21.827Z,12.90
2019-03-23T06:34:36.127Z,15.80
2019-03-23T06:37:50.278Z,15.20
2019-03-23T06:41:04.271Z,20.83
2019-03-23T06:44:18.523Z,25.07
2019-03-23T06:47:32.687Z,22.33
2019-03-23T06:50:46.738Z,19.83
2019-03-23T06:54:00.986Z,23.73
2019-03-23T06:57:15.302Z,18.33
2019-03-23T07:00:29.426Z,15.43
2019-03-23T07:03:43.421Z,14.30
2019-03-23T07:06:57.414Z,15.57
2019-03-23T07:10:12.375Z,15.93
2019-03-23T07:13:26.408Z,44.00
2019-03-23T07:16:42.152Z,36.30
2019-03-23T07:19:56.578Z,37.43
2019-03-23T07:23:10.600Z,32.87
2019-03-23T07:26:24.943Z,28.80
2019-03-23T07:29:39.771Z,27.07
2019-03-23T07:32:54.214Z,25.67
2019-03-23T07:36:08.248Z,22.77
2019-03-23T07:39:27.329Z,22.53
2019-03-23T07:42:38.638Z,23.73
2019-03-23T07:45:52.672Z,21.57
2019-03-23T07:49:06.705Z,21.33
2019-03-23T07:52:20.940Z,21.00
2019-03-23T07:55:35.340Z,19.00
2019-03-23T07:58:49.620Z,22.90
2019-03-23T08:02:04.106Z,25.40
2019-03-23T08:05:19.577Z,39.47
2019-03-23T08:08:33.607Z,58.77
2019-03-23T08:11:47.609Z,45.23
2019-03-23T08:15:01.973Z,35.13
2019-03-23T08:18:15.993Z,34.33
2019-03-23T08:21:30.020Z,35.40
2019-03-23T08:24:44.092Z,36.80
2019-03-23T08:27:58.083Z,40.50
2019-03-23T08:31:12.103Z,38.33
2019-03-23T08:34:26.109Z,36.97
2019-03-23T08:37:40.108Z,38.90
2019-03-23T08:40:54.107Z,36.90
2019-03-23T08:44:08.458Z,34.67
2019-03-23T08:47:22.466Z,37.10
2019-03-23T08:50:36.571Z,38.93
2019-03-23T08:53:50.832Z,36.20
2019-03-23T08:57:04.860Z,36.83
2019-03-23T09:00:19.100Z,38.03
2019-03-23T09:03:33.240Z,35.70
2019-03-23T09:06:47.650Z,36.83
2019-03-23T09:10:02.368Z,37.30
2019-03-23T09:13:16.371Z,36.67
2019-03-23T09:16:30.406Z,36.80
2019-03-23T09:19:44.841Z,34.73
2019-03-23T09:22:58.865Z,33.23
2019-03-23T09:26:13.789Z,33.37
2019-03-23T09:29:27.899Z,32.60
2019-03-23T09:32:42.037Z,32.37
2019-03-23T09:35:56.051Z,33.90
2019-03-23T09:39:10.323Z,34.73
2019-03-23T09:42:24.349Z,33.73
2019-03-23T09:45:39.033Z,35.27
2019-03-23T09:48:53.042Z,36.23
2019-03-23T09:52:07.290Z,36.40
2019-03-23T09:55:21.291Z,37.97
2019-03-23T09:58:35.317Z,37.97
2019-03-23T10:01:49.326Z,38.03
2019-03-23T10:05:04.633Z,40.50
2019-03-23T10:08:18.773Z,39.77
2019-03-23T10:11:32.823Z,41.10
2019-03-23T10:14:46.836Z,37.80
2019-03-23T10:18:01.733Z,41.77
2019-03-23T10:21:15.925Z,39.97
2019-03-23T10:24:30.217Z,40.23
2019-03-23T10:27:44.918Z,38.60
2019-03-23T10:30:58.925Z,37.27
2019-03-23T10:34:12.948Z,39.10
2019-03-23T10:37:27.079Z,38.60
2019-03-23T10:40:42.903Z,40.27
2019-03-23T10:43:57.077Z,40.47
2019-03-23T10:47:11.514Z,44.07
2019-03-23T10:50:25.876Z,39.40
2019-03-23T10:53:40.252Z,39.47
2019-03-23T10:56:54.391Z,38.97
2019-03-23T11:00:09.704Z,38.70
2019-03-23T11:03:23.731Z,39.10
2019-03-23T11:06:38.001Z,38.13
2019-03-23T11:09:52.058Z,37.33
2019-03-23T11:13:06.096Z,39.73
2019-03-23T11:16:20.119Z,40.63
2019-03-23T11:19:34.138Z,41.13
2019-03-23T11:22:48.371Z,41.07
2019-03-23T11:26:02.502Z,39.47
2019-03-23T11:29:16.518Z,43.03
2019-03-23T11:32:30.544Z,41.67
2019-03-23T11:35:44.567Z,41.77
2019-03-23T11:38:58.851Z,40.27
2019-03-23T11:42:13.226Z,42.10
2019-03-23T11:45:27.525Z,42.57
2019-03-23T11:48:41.545Z,41.07
2019-03-23T11:51:56.206Z,43.20
2019-03-23T11:55:10.457Z,41.57
2019-03-23T11:58:24.799Z,43.87
2019-03-23T12:01:38.849Z,45.57
2019-03-23T12:04:52.904Z,45.10
2019-03-23T12:08:07.200Z,43.00
2019-03-23T12:11:21.761Z,42.47
2019-03-23T12:14:35.827Z,43.70
2019-03-23T12:17:49.838Z,42.67
2019-03-23T12:21:04.142Z,43.97
2019-03-23T12:24:18.202Z,44.13
2019-03-23T12:27:32.227Z,44.90
2019-03-23T12:30:46.935Z,44.87
2019-03-23T12:34:00.975Z,44.20
2019-03-23T12:37:15.010Z,46.63
2019-03-23T12:40:29.040Z,44.53
2019-03-23T12:43:43.654Z,43.77
2019-03-23T12:46:57.705Z,45.23
2019-03-23T12:50:12.354Z,46.93
2019-03-23T12:53:26.725Z,43.87
2019-03-23T12:56:40.922Z,44.67
2019-03-23T12:59:55.177Z,45.07
2019-03-23T13:03:09.322Z,44.37
2019-03-23T13:06:23.691Z,43.37
2019-03-23T13:09:38.204Z,44.50
2019-03-23T13:12:52.257Z,44.03
2019-03-23T13:16:06.855Z,44.13
2019-03-23T13:19:21.247Z,44.50
2019-03-23T13:22:35.423Z,45.43
2019-03-23T13:25:49.603Z,44.77
2019-03-23T13:29:03.928Z,43.60
2019-03-23T13:32:18.037Z,44.67
2019-03-23T13:35:32.091Z,42.40
2019-03-23T13:38:46.609Z,44.97
2019-03-23T13:42:01.270Z,44.67
2019-03-23T13:45:15.537Z,45.20
2019-03-23T13:48:29.892Z,46.27
2019-03-23T13:51:44.089Z,46.40
2019-03-23T13:54:58.660Z,44.43
2019-03-23T13:58:13.632Z,46.73
2019-03-23T14:01:28.808Z,45.17
2019-03-23T14:04:43.006Z,45.37
2019-03-23T14:07:57.299Z,45.37
2019-03-23T14:11:11.337Z,45.03
2019-03-23T14:14:25.606Z,43.20
2019-03-23T14:17:40.055Z,43.83
2019-03-23T14:20:54.276Z,43.17
2019-03-23T14:24:08.869Z,43.70
2019-03-23T14:27:23.339Z,43.87
2019-03-23T14:30:37.442Z,45.10
2019-03-23T14:33:51.867Z,41.53
2019-03-23T14:37:06.028Z,43.17
2019-03-23T14:40:20.091Z,42.20
2019-03-23T14:43:34.229Z,41.27
2019-03-23T14:46:48.373Z,41.33
2019-03-23T14:50:02.681Z,40.93
2019-03-23T14:53:16.739Z,41.67
2019-03-23T14:56:31.976Z,39.67
2019-03-23T14:59:46.265Z,38.50
2019-03-23T15:03:00.668Z,40.53
2019-03-23T15:06:15.081Z,38.37
2019-03-23T15:09:29.127Z,38.97
2019-03-23T15:12:43.500Z,38.23
2019-03-23T15:15:58.075Z,38.30
2019-03-23T15:19:12.148Z,38.03
2019-03-23T15:22:26.429Z,38.70
2019-03-23T15:25:40.758Z,39.07
2019-03-23T15:28:54.896Z,40.17
2019-03-23T15:32:08.998Z,41.63
2019-03-23T15:35:23.675Z,40.67
2019-03-23T15:38:37.960Z,40.47
2019-03-23T15:41:52.090Z,39.33
2019-03-23T15:45:08.020Z,40.80
2019-03-23T15:48:22.069Z,40.40
2019-03-23T15:51:36.335Z,40.50
2019-03-23T15:54:51.299Z,40.77
2019-03-23T15:58:05.474Z,41.93
2019-03-23T16:01:19.698Z,43.40
2019-03-23T16:04:34.375Z,41.30
2019-03-23T16:07:48.458Z,42.13
2019-03-23T16:11:02.862Z,41.60
2019-03-23T16:14:17.044Z,42.27
2019-03-23T16:17:31.184Z,43.03
2019-03-23T16:20:45.302Z,42.67
2019-03-23T16:23:59.539Z,43.93
2019-03-23T16:27:13.627Z,44.20
2019-03-23T16:30:29.406Z,44.83
2019-03-23T16:33:43.506Z,47.80
2019-03-23T16:36:57.707Z,47.33
2019-03-23T16:40:11.948Z,46.07
2019-03-23T16:43:26.412Z,47.70
2019-03-23T16:46:40.619Z,48.17
2019-03-23T16:49:54.672Z,47.33
2019-03-23T16:53:08.897Z,47.40
2019-03-23T16:56:22.943Z,49.23
2019-03-23T16:59:37.013Z,49.77
2019-03-23T17:02:51.965Z,48.90
2019-03-23T17:06:06.099Z,50.23
2019-03-23T17:09:20.441Z,51.87
2019-03-23T17:12:34.691Z,50.30
2019-03-23T17:15:49.074Z,51.33
2019-03-23T17:19:03.353Z,50.47
2019-03-23T17:22:17.722Z,49.80
2019-03-23T17:25:31.862Z,52.17
2019-03-23T17:28:45.913Z,51.27
2019-03-23T17:32:00.080Z,51.57
2019-03-23T17:35:14.173Z,50.53
2019-03-23T17:38:28.433Z,50.77
2019-03-23T17:41:43.137Z,53.97
2019-03-23T17:44:57.192Z,53.33
2019-03-23T17:48:11.452Z,52.17
2019-03-23T17:51:25.865Z,54.50
2019-03-23T17:54:39.988Z,54.33
2019-03-23T17:57:54.014Z,56.43
2019-03-23T18:01:19.037Z,57.17
2019-03-23T18:04:26.718Z,55.77
2019-03-23T18:07:41.092Z,56.37
2019-03-23T18:10:55.210Z,55.47
2019-03-23T18:14:09.827Z,56.83
2019-03-23T18:17:25.172Z,56.13
2019-03-23T18:20:39.538Z,56.47
2019-03-23T18:23:53.675Z,59.10
2019-03-23T18:27:08.131Z,58.77
2019-03-23T18:30:38.090Z,59.53
2019-03-23T18:33:52.112Z,56.53
2019-03-23T18:37:06.225Z,58.93
2019-03-23T18:40:20.353Z,62.83
2019-03-23T18:43:34.587Z,81.17
2019-03-23T18:46:49.012Z,82.47
2019-03-23T18:50:03.800Z,71.30
2019-03-23T18:53:18.354Z,61.27
2019-03-23T18:56:32.476Z,59.20
2019-03-23T18:59:47.144Z,62.57
2019-03-23T19:03:01.631Z,61.80
2019-03-23T19:06:15.659Z,60.70
2019-03-23T19:09:29.682Z,59.07
2019-03-23T19:12:43.710Z,61.83
2019-03-23T19:15:57.728Z,60.03
2019-03-23T19:19:12.147Z,60.27
2019-03-23T19:22:26.182Z,61.67
2019-03-23T19:25:40.416Z,83.27
2019-03-23T19:28:54.503Z,78.43
2019-03-23T19:32:08.520Z,60.37
2019-03-23T19:35:22.662Z,59.00
2019-03-23T19:38:36.940Z,66.17
2019-03-23T19:41:50.971Z,60.80
2019-03-23T19:45:05.460Z,62.40
2019-03-23T19:48:19.568Z,81.00
2019-03-23T19:51:33.945Z,76.70
2019-03-23T19:54:48.375Z,66.83
2019-03-23T19:58:03.943Z,65.50
2019-03-23T20:01:17.953Z,65.90
2019-03-23T20:04:32.127Z,56.80
2019-03-23T20:07:46.192Z,57.63
2019-03-23T20:11:00.476Z,55.30
2019-03-23T20:14:14.495Z,56.03
2019-03-23T20:17:28.514Z,52.20
2019-03-23T20:20:42.551Z,51.80
2019-03-23T20:23:56.664Z,59.17
2019-03-23T20:27:11.008Z,63.20
2019-03-23T20:30:25.378Z,57.00
2019-03-23T20:33:39.414Z,58.53
2019-03-23T20:36:53.622Z,55.13
2019-03-23T20:40:08.175Z,61.17
2019-03-23T20:43:22.195Z,61.63
2019-03-23T20:46:36.421Z,58.07
2019-03-23T20:49:51.817Z,73.03
2019-03-23T20:53:06.491Z,64.20
2019-03-23T20:56:20.497Z,58.83
2019-03-23T20:59:34.499Z,89.60
2019-03-23T21:02:48.636Z,63.47
2019-03-23T21:06:03.186Z,64.40
2019-03-23T21:09:17.211Z,60.93
2019-03-23T21:12:31.231Z,97.30
2019-03-23T21:15:45.234Z,78.27
2019-03-23T21:18:59.293Z,60.10
2019-03-23T21:22:13.356Z,59.43
2019-03-23T21:25:27.390Z,78.47
2019-03-23T21:28:41.706Z,59.70
2019-03-23T21:31:55.708Z,67.30
2019-03-23T21:35:10.467Z,110.37
2019-03-23T21:38:24.578Z,75.13
2019-03-23T21:41:38.614Z,63.90
2019-03-23T21:44:52.657Z,62.87
2019-03-23T21:48:06.762Z,73.00
2019-03-23T21:51:20.875Z,55.23
2019-03-23T21:54:34.894Z,59.40
2019-03-23T21:57:48.957Z,62.60
2019-03-23T22:01:03.346Z,59.57
2019-03-23T22:04:17.557Z,100.00
2019-03-23T22:07:31.559Z,71.57
2019-03-23T22:10:45.579Z,60.10
2019-03-23T22:13:59.633Z,62.37
2019-03-23T22:17:13.751Z,60.57
2019-03-23T22:20:27.767Z,58.40
2019-03-23T22:23:42.267Z,57.03
2019-03-23T22:26:56.679Z,55.73
2019-03-23T22:30:11.605Z,60.37
2019-03-23T22:33:25.615Z,69.03
2019-03-23T22:36:39.618Z,66.53
2019-03-23T22:39:53.616Z,64.77
2019-03-23T22:43:08.034Z,59.30
2019-03-23T22:46:22.042Z,55.37
2019-03-23T22:49:36.050Z,58.37
2019-03-23T22:52:50.056Z,56.60
2019-03-23T22:56:04.196Z,56.33
2019-03-23T22:59:18.198Z,59.33
2019-03-23T23:02:32.314Z,57.00
2019-03-23T23:05:46.527Z,60.67
2019-03-23T23:09:00.549Z,61.10
2019-03-23T23:12:14.931Z,63.03
2019-03-23T23:15:28.932Z,56.20
2019-03-23T23:18:42.978Z,54.17
2019-03-23T23:21:57.011Z,55.20
2019-03-23T23:25:11.409Z,64.20
2019-03-23T23:28:25.812Z,64.30
2019-03-23T23:31:40.123Z,72.37
2019-03-23T23:34:54.330Z,96.03
2019-03-23T23:38:08.563Z,75.50
2019-03-23T23:41:22.675Z,64.63
2019-03-23T23:44:37.072Z,67.17
2019-03-23T23:47:51.527Z,62.17
2019-03-23T23:51:06.080Z,56.37
2019-03-23T23:54:20.093Z,58.47
2019-03-23T23:57:34.647Z,54.43
